Terminal Aerodrome Forecast
Issued by NWS

Home | Current Version | Previous Version | Graphics & Text | Print | Product List | Glossary On
Versions: 1 2 3 4 5 6 7 8 9 10 11 12 13 14 15 16 17 18 19 20 21 22
000
FTUS43 KABR 212100 AAA
TAFPIR
TAF AMD
KPIR 212140Z 2122/2218 30016G22KT P6SM SKC
     FM220300 33010KT P6SM FEW250
     FM220900 35013KT P6SM FEW250=

USA.gov is the U.S. government's official web portal to all federal, state and local government web resources and services.